sensor_id;sensor_type;location;lat;lon;timestamp;pressure;altitude;pressure_sealevel;temperature;humidity
85928;BME280;76685;49.582;18.342;2024-02-21T00:00:10;97881.36;;;4.08;86.51
85928;BME280;76685;49.582;18.342;2024-02-21T00:02:57;97881.73;;;4.02;86.43
85928;BME280;76685;49.582;18.342;2024-02-21T00:05:29;97883.50;;;3.96;86.67
85928;BME280;76685;49.582;18.342;2024-02-21T00:07:58;97881.66;;;3.90;86.73
85928;BME280;76685;49.582;18.342;2024-02-21T00:10:30;97879.16;;;3.88;87.15
85928;BME280;76685;49.582;18.342;2024-02-21T00:12:59;97878.79;;;3.88;86.89
85928;BME280;76685;49.582;18.342;2024-02-21T00:15:30;97881.12;;;3.86;87.26
85928;BME280;76685;49.582;18.342;2024-02-21T00:17:57;97874.04;;;3.81;87.16
85928;BME280;76685;49.582;18.342;2024-02-21T00:20:25;97871.08;;;3.80;87.17
85928;BME280;76685;49.582;18.342;2024-02-21T00:22:53;97871.75;;;3.83;87.31
85928;BME280;76685;49.582;18.342;2024-02-21T00:25:21;97865.02;;;3.82;87.14
85928;BME280;76685;49.582;18.342;2024-02-21T00:27:48;97864.27;;;3.78;87.45
85928;BME280;76685;49.582;18.342;2024-02-21T00:30:15;97864.70;;;3.74;87.41
85928;BME280;76685;49.582;18.342;2024-02-21T00:32:42;97861.89;;;3.74;87.49
85928;BME280;76685;49.582;18.342;2024-02-21T00:35:10;97860.09;;;3.75;87.82
85928;BME280;76685;49.582;18.342;2024-02-21T00:37:37;97856.16;;;3.74;87.46
85928;BME280;76685;49.582;18.342;2024-02-21T00:40:04;97853.61;;;3.77;87.61
85928;BME280;76685;49.582;18.342;2024-02-21T00:42:32;97854.52;;;3.81;87.48
85928;BME280;76685;49.582;18.342;2024-02-21T00:44:59;97850.34;;;3.84;87.49
85928;BME280;76685;49.582;18.342;2024-02-21T00:47:45;97842.86;;;3.86;87.36
85928;BME280;76685;49.582;18.342;2024-02-21T00:50:12;97843.08;;;3.88;87.47
85928;BME280;76685;49.582;18.342;2024-02-21T00:52:40;97840.40;;;3.88;87.62
85928;BME280;76685;49.582;18.342;2024-02-21T00:55:07;97844.10;;;3.86;87.50
85928;BME280;76685;49.582;18.342;2024-02-21T00:57:35;97843.18;;;3.84;87.15
85928;BME280;76685;49.582;18.342;2024-02-21T01:00:05;97842.70;;;3.84;87.22
85928;BME280;76685;49.582;18.342;2024-02-21T01:02:32;97841.71;;;3.85;87.02
85928;BME280;76685;49.582;18.342;2024-02-21T01:04:59;97840.44;;;3.87;87.03
85928;BME280;76685;49.582;18.342;2024-02-21T01:07:31;97837.02;;;3.89;87.42
85928;BME280;76685;49.582;18.342;2024-02-21T01:09:58;97835.91;;;3.90;87.29
85928;BME280;76685;49.582;18.342;2024-02-21T01:12:30;97832.84;;;3.93;87.50
85928;BME280;76685;49.582;18.342;2024-02-21T01:14:57;97831.70;;;3.94;87.32
85928;BME280;76685;49.582;18.342;2024-02-21T01:17:24;97833.88;;;3.91;87.40
85928;BME280;76685;49.582;18.342;2024-02-21T01:19:51;97826.54;;;3.91;87.26
85928;BME280;76685;49.582;18.342;2024-02-21T01:22:18;97821.96;;;3.92;87.08
85928;BME280;76685;49.582;18.342;2024-02-21T01:24:46;97819.96;;;3.92;86.80
85928;BME280;76685;49.582;18.342;2024-02-21T01:27:13;97822.19;;;3.92;86.65
85928;BME280;76685;49.582;18.342;2024-02-21T01:29:40;97819.24;;;3.93;87.03
85928;BME280;76685;49.582;18.342;2024-02-21T01:32:07;97819.57;;;3.89;86.83
85928;BME280;76685;49.582;18.342;2024-02-21T01:34:34;97811.99;;;3.83;86.88
85928;BME280;76685;49.582;18.342;2024-02-21T01:37:01;97807.34;;;3.81;86.81
85928;BME280;76685;49.582;18.342;2024-02-21T01:39:31;97803.73;;;3.80;86.78
85928;BME280;76685;49.582;18.342;2024-02-21T01:41:58;97798.72;;;3.82;86.88
85928;BME280;76685;49.582;18.342;2024-02-21T01:44:29;97798.20;;;3.80;86.83
85928;BME280;76685;49.582;18.342;2024-02-21T01:46:56;97801.59;;;3.75;87.06
85928;BME280;76685;49.582;18.342;2024-02-21T01:49:23;97801.59;;;3.71;87.08
85928;BME280;76685;49.582;18.342;2024-02-21T01:51:51;97800.63;;;3.70;86.91
85928;BME280;76685;49.582;18.342;2024-02-21T01:54:18;97800.50;;;3.67;87.08
85928;BME280;76685;49.582;18.342;2024-02-21T01:56:46;97804.16;;;3.62;87.26
85928;BME280;76685;49.582;18.342;2024-02-21T01:59:15;97810.08;;;3.57;87.01
85928;BME280;76685;49.582;18.342;2024-02-21T02:01:44;97814.91;;;3.55;87.12
85928;BME280;76685;49.582;18.342;2024-02-21T02:04:12;97816.99;;;3.49;87.10
85928;BME280;76685;49.582;18.342;2024-02-21T02:06:40;97817.38;;;3.45;87.52
85928;BME280;76685;49.582;18.342;2024-02-21T02:09:07;97811.10;;;3.39;87.02
85928;BME280;76685;49.582;18.342;2024-02-21T02:11:35;97810.18;;;3.32;87.57
85928;BME280;76685;49.582;18.342;2024-02-21T02:14:02;97801.73;;;3.29;87.48
85928;BME280;76685;49.582;18.342;2024-02-21T02:16:29;97798.59;;;3.30;87.50
85928;BME280;76685;49.582;18.342;2024-02-21T02:18:56;97795.34;;;3.33;87.57
85928;BME280;76685;49.582;18.342;2024-02-21T02:21:34;97790.52;;;3.37;87.71
85928;BME280;76685;49.582;18.342;2024-02-21T02:24:05;97791.97;;;3.45;87.89
85928;BME280;76685;49.582;18.342;2024-02-21T02:26:32;97790.33;;;3.50;88.12
85928;BME280;76685;49.582;18.342;2024-02-21T02:29:01;97786.80;;;3.49;87.78
85928;BME280;76685;49.582;18.342;2024-02-21T02:31:28;97781.84;;;3.49;87.38
85928;BME280;76685;49.582;18.342;2024-02-21T02:33:55;97780.47;;;3.53;87.67
85928;BME280;76685;49.582;18.342;2024-02-21T02:36:23;97772.94;;;3.51;87.58
85928;BME280;76685;49.582;18.342;2024-02-21T02:38:49;97768.28;;;3.53;87.49
85928;BME280;76685;49.582;18.342;2024-02-21T02:41:16;97762.11;;;3.58;87.50
85928;BME280;76685;49.582;18.342;2024-02-21T02:43:43;97762.34;;;3.64;87.31
85928;BME280;76685;49.582;18.342;2024-02-21T02:46:10;97759.91;;;3.69;87.11
85928;BME280;76685;49.582;18.342;2024-02-21T02:48:37;97756.30;;;3.70;87.00
85928;BME280;76685;49.582;18.342;2024-02-21T02:51:05;97755.64;;;3.73;87.13
85928;BME280;76685;49.582;18.342;2024-02-21T02:53:32;97758.90;;;3.77;87.21
85928;BME280;76685;49.582;18.342;2024-02-21T02:55:59;97759.35;;;3.74;86.87
85928;BME280;76685;49.582;18.342;2024-02-21T02:58:29;97758.85;;;3.69;87.12
85928;BME280;76685;49.582;18.342;2024-02-21T03:00:56;97757.04;;;3.65;86.94
85928;BME280;76685;49.582;18.342;2024-02-21T03:03:23;97758.10;;;3.65;86.94
85928;BME280;76685;49.582;18.342;2024-02-21T03:05:50;97757.83;;;3.64;87.33
85928;BME280;76685;49.582;18.342;2024-02-21T03:08:17;97760.08;;;3.61;87.29
85928;BME280;76685;49.582;18.342;2024-02-21T03:10:44;97757.50;;;3.60;87.07
85928;BME280;76685;49.582;18.342;2024-02-21T03:13:11;97759.90;;;3.61;87.43
85928;BME280;76685;49.582;18.342;2024-02-21T03:15:39;97758.63;;;3.61;87.08
85928;BME280;76685;49.582;18.342;2024-02-21T03:18:06;97747.65;;;3.58;87.07
85928;BME280;76685;49.582;18.342;2024-02-21T03:20:34;97747.17;;;3.55;87.05
85928;BME280;76685;49.582;18.342;2024-02-21T03:23:01;97746.93;;;3.52;87.41
85928;BME280;76685;49.582;18.342;2024-02-21T03:25:29;97743.75;;;3.47;87.45
85928;BME280;76685;49.582;18.342;2024-02-21T03:27:56;97736.69;;;3.44;87.59
85928;BME280;76685;49.582;18.342;2024-02-21T03:30:23;97744.08;;;3.46;87.62
85928;BME280;76685;49.582;18.342;2024-02-21T03:32:50;97751.89;;;3.44;87.58
85928;BME280;76685;49.582;18.342;2024-02-21T03:35:17;97743.00;;;3.46;87.54
85928;BME280;76685;49.582;18.342;2024-02-21T03:37:45;97744.05;;;3.48;87.37
85928;BME280;76685;49.582;18.342;2024-02-21T03:40:12;97747.27;;;3.44;87.35
85928;BME280;76685;49.582;18.342;2024-02-21T03:42:39;97749.15;;;3.36;87.35
85928;BME280;76685;49.582;18.342;2024-02-21T03:45:07;97745.77;;;3.34;87.18
85928;BME280;76685;49.582;18.342;2024-02-21T03:47:34;97743.11;;;3.34;87.24
85928;BME280;76685;49.582;18.342;2024-02-21T03:50:01;97745.25;;;3.30;87.14
85928;BME280;76685;49.582;18.342;2024-02-21T03:52:30;97748.99;;;3.32;87.19
85928;BME280;76685;49.582;18.342;2024-02-21T03:54:57;97749.77;;;3.33;87.37
85928;BME280;76685;49.582;18.342;2024-02-21T03:57:24;97744.05;;;3.31;87.50
85928;BME280;76685;49.582;18.342;2024-02-21T03:59:51;97739.48;;;3.30;87.28
85928;BME280;76685;49.582;18.342;2024-02-21T04:02:19;97732.41;;;3.29;87.01
85928;BME280;76685;49.582;18.342;2024-02-21T04:04:46;97734.40;;;3.33;87.08
85928;BME280;76685;49.582;18.342;2024-02-21T04:07:14;97737.23;;;3.36;87.42
85928;BME280;76685;49.582;18.342;2024-02-21T04:09:41;97738.58;;;3.34;87.48
85928;BME280;76685;49.582;18.342;2024-02-21T04:12:08;97738.80;;;3.34;87.50
85928;BME280;76685;49.582;18.342;2024-02-21T04:14:35;97740.63;;;3.38;87.55
85928;BME280;76685;49.582;18.342;2024-02-21T04:17:02;97736.67;;;3.42;87.52
85928;BME280;76685;49.582;18.342;2024-02-21T04:19:30;97736.56;;;3.48;87.23
85928;BME280;76685;49.582;18.342;2024-02-21T04:21:57;97736.97;;;3.56;87.07
85928;BME280;76685;49.582;18.342;2024-02-21T04:24:24;97735.52;;;3.62;87.27
85928;BME280;76685;49.582;18.342;2024-02-21T04:26:52;97735.02;;;3.66;87.73
85928;BME280;76685;49.582;18.342;2024-02-21T04:29:19;97729.42;;;3.69;86.89
85928;BME280;76685;49.582;18.342;2024-02-21T04:31:46;97724.28;;;3.74;86.83
85928;BME280;76685;49.582;18.342;2024-02-21T04:34:13;97721.71;;;3.77;86.95
85928;BME280;76685;49.582;18.342;2024-02-21T04:36:40;97722.11;;;3.79;86.74
85928;BME280;76685;49.582;18.342;2024-02-21T04:39:07;97721.16;;;3.80;86.73
85928;BME280;76685;49.582;18.342;2024-02-21T04:41:34;97722.50;;;3.81;86.76
85928;BME280;76685;49.582;18.342;2024-02-21T04:44:01;97723.98;;;3.84;86.83
85928;BME280;76685;49.582;18.342;2024-02-21T04:46:30;97724.46;;;3.85;87.19
85928;BME280;76685;49.582;18.342;2024-02-21T04:48:58;97720.07;;;3.84;87.22
85928;BME280;76685;49.582;18.342;2024-02-21T04:51:25;97715.11;;;3.86;87.25
85928;BME280;76685;49.582;18.342;2024-02-21T04:53:52;97720.21;;;3.89;87.25
85928;BME280;76685;49.582;18.342;2024-02-21T04:56:19;97716.05;;;3.93;87.02
85928;BME280;76685;49.582;18.342;2024-02-21T04:58:45;97712.86;;;3.97;86.90
85928;BME280;76685;49.582;18.342;2024-02-21T05:01:12;97710.95;;;3.95;86.82
85928;BME280;76685;49.582;18.342;2024-02-21T05:03:39;97711.37;;;3.96;86.70
85928;BME280;76685;49.582;18.342;2024-02-21T05:06:06;97709.66;;;3.97;86.86
85928;BME280;76685;49.582;18.342;2024-02-21T05:08:34;97709.95;;;3.96;86.76
85928;BME280;76685;49.582;18.342;2024-02-21T05:11:01;97707.92;;;3.92;86.96
85928;BME280;76685;49.582;18.342;2024-02-21T05:13:29;97705.20;;;3.93;87.10
85928;BME280;76685;49.582;18.342;2024-02-21T05:15:56;97706.92;;;3.93;86.72
85928;BME280;76685;49.582;18.342;2024-02-21T05:18:23;97711.20;;;3.94;86.92
85928;BME280;76685;49.582;18.342;2024-02-21T05:20:50;97709.84;;;3.97;87.06
85928;BME280;76685;49.582;18.342;2024-02-21T05:23:17;97710.43;;;3.98;87.01
85928;BME280;76685;49.582;18.342;2024-02-21T05:25:44;97708.77;;;4.01;86.82
85928;BME280;76685;49.582;18.342;2024-02-21T05:28:11;97703.19;;;4.05;86.96
85928;BME280;76685;49.582;18.342;2024-02-21T05:30:38;97704.86;;;4.07;86.60
85928;BME280;76685;49.582;18.342;2024-02-21T05:33:05;97706.33;;;4.12;86.44
85928;BME280;76685;49.582;18.342;2024-02-21T05:35:33;97701.48;;;4.16;86.82
85928;BME280;76685;49.582;18.342;2024-02-21T05:38:00;97700.89;;;4.21;86.11
85928;BME280;76685;49.582;18.342;2024-02-21T05:40:28;97699.50;;;4.29;86.07
85928;BME280;76685;49.582;18.342;2024-02-21T05:42:55;97700.27;;;4.37;85.72
85928;BME280;76685;49.582;18.342;2024-02-21T05:45:22;97702.83;;;4.44;85.81
85928;BME280;76685;49.582;18.342;2024-02-21T05:47:49;97694.65;;;4.51;85.52
85928;BME280;76685;49.582;18.342;2024-02-21T05:50:17;97693.21;;;4.58;85.44
85928;BME280;76685;49.582;18.342;2024-02-21T05:52:44;97692.33;;;4.62;85.30
85928;BME280;76685;49.582;18.342;2024-02-21T05:55:11;97692.77;;;4.64;85.08
85928;BME280;76685;49.582;18.342;2024-02-21T05:57:38;97691.33;;;4.67;84.72
85928;BME280;76685;49.582;18.342;2024-02-21T06:00:07;97692.89;;;4.69;84.72
85928;BME280;76685;49.582;18.342;2024-02-21T06:02:34;97696.51;;;4.71;84.98
85928;BME280;76685;49.582;18.342;2024-02-21T06:05:01;97697.84;;;4.72;84.67
85928;BME280;76685;49.582;18.342;2024-02-21T06:07:30;97696.38;;;4.74;84.80
85928;BME280;76685;49.582;18.342;2024-02-21T06:09:57;97694.45;;;4.75;84.30
85928;BME280;76685;49.582;18.342;2024-02-21T06:12:24;97693.64;;;4.75;84.22
85928;BME280;76685;49.582;18.342;2024-02-21T06:14:52;97691.66;;;4.75;83.90
85928;BME280;76685;49.582;18.342;2024-02-21T06:17:19;97692.89;;;4.73;83.83
85928;BME280;76685;49.582;18.342;2024-02-21T06:19:46;97695.23;;;4.71;83.97
85928;BME280;76685;49.582;18.342;2024-02-21T06:22:13;97698.20;;;4.70;83.76
85928;BME280;76685;49.582;18.342;2024-02-21T06:24:40;97697.38;;;4.67;83.58
85928;BME280;76685;49.582;18.342;2024-02-21T06:27:08;97695.80;;;4.65;83.70
85928;BME280;76685;49.582;18.342;2024-02-21T06:29:35;97695.46;;;4.63;83.69
85928;BME280;76685;49.582;18.342;2024-02-21T06:32:02;97690.19;;;4.59;83.68
85928;BME280;76685;49.582;18.342;2024-02-21T06:34:31;97697.48;;;4.58;83.82
85928;BME280;76685;49.582;18.342;2024-02-21T06:36:58;97697.47;;;4.58;84.03
85928;BME280;76685;49.582;18.342;2024-02-21T06:39:30;97698.39;;;4.60;84.02
85928;BME280;76685;49.582;18.342;2024-02-21T06:41:57;97697.52;;;4.62;83.83
85928;BME280;76685;49.582;18.342;2024-02-21T06:44:25;97692.89;;;4.61;83.88
85928;BME280;76685;49.582;18.342;2024-02-21T06:46:52;97697.15;;;4.62;84.11
85928;BME280;76685;49.582;18.342;2024-02-21T06:49:21;97695.91;;;4.61;84.22
85928;BME280;76685;49.582;18.342;2024-02-21T06:51:48;97692.02;;;4.63;84.03
85928;BME280;76685;49.582;18.342;2024-02-21T06:54:15;97695.90;;;4.65;84.01
85928;BME280;76685;49.582;18.342;2024-02-21T06:56:42;97696.10;;;4.67;83.70
85928;BME280;76685;49.582;18.342;2024-02-21T06:59:09;97691.04;;;4.70;83.76
85928;BME280;76685;49.582;18.342;2024-02-21T07:01:37;97687.65;;;4.72;83.46
85928;BME280;76685;49.582;18.342;2024-02-21T07:04:04;97692.30;;;4.76;83.46
85928;BME280;76685;49.582;18.342;2024-02-21T07:06:31;97695.52;;;4.82;83.37
85928;BME280;76685;49.582;18.342;2024-02-21T07:08:58;97696.58;;;4.86;83.48
85928;BME280;76685;49.582;18.342;2024-02-21T07:11:30;97697.96;;;4.91;83.33
85928;BME280;76685;49.582;18.342;2024-02-21T07:13:57;97695.92;;;4.93;83.32
85928;BME280;76685;49.582;18.342;2024-02-21T07:16:24;97697.98;;;4.94;83.17
85928;BME280;76685;49.582;18.342;2024-02-21T07:18:51;97692.59;;;4.96;83.10
85928;BME280;76685;49.582;18.342;2024-02-21T07:21:18;97689.29;;;4.99;83.25
85928;BME280;76685;49.582;18.342;2024-02-21T07:23:45;97691.72;;;5.02;83.42
85928;BME280;76685;49.582;18.342;2024-02-21T07:26:12;97692.77;;;5.04;83.87
85928;BME280;76685;49.582;18.342;2024-02-21T07:28:39;97690.02;;;5.07;83.80
85928;BME280;76685;49.582;18.342;2024-02-21T07:31:06;97689.27;;;5.13;83.27
85928;BME280;76685;49.582;18.342;2024-02-21T07:33:33;97688.83;;;5.20;83.20
85928;BME280;76685;49.582;18.342;2024-02-21T07:36:06;97687.75;;;5.27;82.63
85928;BME280;76685;49.582;18.342;2024-02-21T07:38:34;97688.04;;;5.36;82.24
85928;BME280;76685;49.582;18.342;2024-02-21T07:41:01;97685.27;;;5.43;81.91
85928;BME280;76685;49.582;18.342;2024-02-21T07:43:29;97678.05;;;5.51;81.78
85928;BME280;76685;49.582;18.342;2024-02-21T07:45:57;97678.68;;;5.59;81.36
85928;BME280;76685;49.582;18.342;2024-02-21T07:48:24;97676.38;;;5.67;81.26
85928;BME280;76685;49.582;18.342;2024-02-21T07:50:54;97676.66;;;5.71;80.87
85928;BME280;76685;49.582;18.342;2024-02-21T07:53:21;97679.26;;;5.74;80.44
85928;BME280;76685;49.582;18.342;2024-02-21T07:55:48;97676.14;;;5.75;79.07
85928;BME280;76685;49.582;18.342;2024-02-21T07:58:15;97675.15;;;5.76;78.79
85928;BME280;76685;49.582;18.342;2024-02-21T08:00:42;97670.20;;;5.75;78.55
85928;BME280;76685;49.582;18.342;2024-02-21T08:03:09;97673.11;;;5.76;78.73
85928;BME280;76685;49.582;18.342;2024-02-21T08:05:36;97662.70;;;5.79;78.70
85928;BME280;76685;49.582;18.342;2024-02-21T08:08:03;97666.08;;;5.79;78.17
85928;BME280;76685;49.582;18.342;2024-02-21T08:10:31;97664.14;;;5.79;78.23
85928;BME280;76685;49.582;18.342;2024-02-21T08:12:58;97660.52;;;5.81;77.69
85928;BME280;76685;49.582;18.342;2024-02-21T08:15:25;97659.11;;;5.84;77.61
85928;BME280;76685;49.582;18.342;2024-02-21T08:17:56;97655.91;;;5.88;77.75
85928;BME280;76685;49.582;18.342;2024-02-21T08:20:30;97657.47;;;5.93;77.72
85928;BME280;76685;49.582;18.342;2024-02-21T08:22:57;97657.04;;;5.97;77.19
85928;BME280;76685;49.582;18.342;2024-02-21T08:25:24;97652.52;;;6.01;77.25
85928;BME280;76685;49.582;18.342;2024-02-21T08:27:51;97645.77;;;6.08;77.22
85928;BME280;76685;49.582;18.342;2024-02-21T08:30:18;97643.83;;;6.24;75.68
85928;BME280;76685;49.582;18.342;2024-02-21T08:32:46;97641.11;;;6.60;75.28
85928;BME280;76685;49.582;18.342;2024-02-21T08:35:14;97641.45;;;7.01;73.99
85928;BME280;76685;49.582;18.342;2024-02-21T08:37:41;97637.64;;;7.41;72.70
85928;BME280;76685;49.582;18.342;2024-02-21T08:40:10;97640.95;;;7.82;70.47
85928;BME280;76685;49.582;18.342;2024-02-21T08:42:40;97637.13;;;8.25;72.34
85928;BME280;76685;49.582;18.342;2024-02-21T08:45:08;97635.59;;;8.31;69.21
85928;BME280;76685;49.582;18.342;2024-02-21T08:47:35;97634.70;;;8.21;69.85
85928;BME280;76685;49.582;18.342;2024-02-21T08:50:02;97638.98;;;8.03;68.18
85928;BME280;76685;49.582;18.342;2024-02-21T08:52:30;97629.27;;;7.70;67.86
85928;BME280;76685;49.582;18.342;2024-02-21T08:54:57;97629.73;;;7.51;69.48
85928;BME280;76685;49.582;18.342;2024-02-21T08:57:24;97630.02;;;7.39;70.03
85928;BME280;76685;49.582;18.342;2024-02-21T08:59:52;97629.09;;;7.19;68.99
85928;BME280;76685;49.582;18.342;2024-02-21T09:02:19;97628.80;;;7.04;70.33
85928;BME280;76685;49.582;18.342;2024-02-21T09:04:46;97629.31;;;6.93;71.00
85928;BME280;76685;49.582;18.342;2024-02-21T09:07:12;97627.88;;;6.86;70.32
85928;BME280;76685;49.582;18.342;2024-02-21T09:09:39;97626.45;;;7.15;70.77
85928;BME280;76685;49.582;18.342;2024-02-21T09:12:07;97625.18;;;7.57;70.00
85928;BME280;76685;49.582;18.342;2024-02-21T09:14:37;97620.83;;;8.18;67.81
85928;BME280;76685;49.582;18.342;2024-02-21T09:17:07;97617.25;;;8.47;67.59
85928;BME280;76685;49.582;18.342;2024-02-21T09:19:35;97612.55;;;8.76;67.25
85928;BME280;76685;49.582;18.342;2024-02-21T09:22:02;97615.52;;;8.90;65.92
85928;BME280;76685;49.582;18.342;2024-02-21T09:24:29;97614.46;;;8.96;66.70
85928;BME280;76685;49.582;18.342;2024-02-21T09:26:56;97621.16;;;8.94;64.97
85928;BME280;76685;49.582;18.342;2024-02-21T09:29:23;97619.27;;;9.02;64.80
85928;BME280;76685;49.582;18.342;2024-02-21T09:31:50;97613.45;;;9.46;64.68
85928;BME280;76685;49.582;18.342;2024-02-21T09:34:18;97604.61;;;10.06;64.58
85928;BME280;76685;49.582;18.342;2024-02-21T09:36:44;97605.06;;;10.64;62.23
85928;BME280;76685;49.582;18.342;2024-02-21T09:39:12;97602.66;;;10.92;61.66
85928;BME280;76685;49.582;18.342;2024-02-21T09:41:45;97600.29;;;11.15;58.78
85928;BME280;76685;49.582;18.342;2024-02-21T09:44:14;97590.77;;;11.54;59.40
85928;BME280;76685;49.582;18.342;2024-02-21T09:46:52;97592.06;;;11.94;57.62
85928;BME280;76685;49.582;18.342;2024-02-21T09:49:34;97592.96;;;12.38;57.11
85928;BME280;76685;49.582;18.342;2024-02-21T09:52:05;97591.52;;;12.56;54.05
85928;BME280;76685;49.582;18.342;2024-02-21T09:54:34;97595.50;;;12.22;53.49
85928;BME280;76685;49.582;18.342;2024-02-21T09:57:01;97596.33;;;11.99;54.34
85928;BME280;76685;49.582;18.342;2024-02-21T09:59:31;97593.67;;;11.85;54.92
85928;BME280;76685;49.582;18.342;2024-02-21T10:01:59;97593.59;;;11.69;55.07
85928;BME280;76685;49.582;18.342;2024-02-21T10:04:30;97590.52;;;11.25;54.24
85928;BME280;76685;49.582;18.342;2024-02-21T10:06:57;97586.94;;;10.83;54.68
85928;BME280;76685;49.582;18.342;2024-02-21T10:09:28;97589.19;;;10.42;55.71
85928;BME280;76685;49.582;18.342;2024-02-21T10:11:56;97589.60;;;10.27;58.07
85928;BME280;76685;49.582;18.342;2024-02-21T10:14:33;97588.83;;;10.26;58.20
85928;BME280;76685;49.582;18.342;2024-02-21T10:17:00;97584.40;;;10.19;57.52
85928;BME280;76685;49.582;18.342;2024-02-21T10:19:29;97579.83;;;10.05;57.15
85928;BME280;76685;49.582;18.342;2024-02-21T10:24:34;97571.04;;;9.87;57.95
85928;BME280;76685;49.582;18.342;2024-02-21T10:27:03;97573.08;;;9.74;58.69
85928;BME280;76685;49.582;18.342;2024-02-21T10:29:31;97573.32;;;9.65;58.48
85928;BME280;76685;49.582;18.342;2024-02-21T10:32:05;97572.67;;;9.53;59.01
85928;BME280;76685;49.582;18.342;2024-02-21T10:34:34;97570.04;;;9.49;59.10
85928;BME280;76685;49.582;18.342;2024-02-21T10:37:08;97569.16;;;9.44;59.61
85928;BME280;76685;49.582;18.342;2024-02-21T10:39:38;97565.77;;;9.40;59.35
85928;BME280;76685;49.582;18.342;2024-02-21T10:42:05;97566.38;;;9.38;60.10
85928;BME280;76685;49.582;18.342;2024-02-21T10:44:35;97558.68;;;9.39;60.42
85928;BME280;76685;49.582;18.342;2024-02-21T10:47:08;97562.11;;;9.39;60.33
85928;BME280;76685;49.582;18.342;2024-02-21T10:49:41;97558.79;;;9.29;58.84
85928;BME280;76685;49.582;18.342;2024-02-21T10:52:30;97565.52;;;9.15;58.71
85928;BME280;76685;49.582;18.342;2024-02-21T10:55:34;97564.78;;;9.00;59.23
85928;BME280;76685;49.582;18.342;2024-02-21T10:58:04;97564.77;;;8.94;60.96
85928;BME280;76685;49.582;18.342;2024-02-21T11:00:33;97563.79;;;8.95;60.94
85928;BME280;76685;49.582;18.342;2024-02-21T11:03:00;97563.27;;;8.90;60.46
85928;BME280;76685;49.582;18.342;2024-02-21T11:05:31;97555.89;;;8.83;60.14
85928;BME280;76685;49.582;18.342;2024-02-21T11:08:00;97552.07;;;8.79;60.57
85928;BME280;76685;49.582;18.342;2024-02-21T11:10:30;97552.77;;;8.79;61.13
85928;BME280;76685;49.582;18.342;2024-02-21T11:13:07;97548.32;;;8.77;60.60
85928;BME280;76685;49.582;18.342;2024-02-21T11:15:35;97546.41;;;8.76;61.43
85928;BME280;76685;49.582;18.342;2024-02-21T11:18:02;97535.80;;;8.74;60.98
85928;BME280;76685;49.582;18.342;2024-02-21T11:20:37;97540.35;;;8.67;61.49
85928;BME280;76685;49.582;18.342;2024-02-21T11:23:05;97538.27;;;8.63;62.22
85928;BME280;76685;49.582;18.342;2024-02-21T11:25:32;97531.65;;;8.61;62.31
85928;BME280;76685;49.582;18.342;2024-02-21T11:28:01;97530.30;;;8.60;62.66
85928;BME280;76685;49.582;18.342;2024-02-21T11:30:30;97529.73;;;8.62;63.00
85928;BME280;76685;49.582;18.342;2024-02-21T11:33:06;97531.25;;;8.58;62.09
85928;BME280;76685;49.582;18.342;2024-02-21T11:35:34;97529.23;;;8.53;62.74
85928;BME280;76685;49.582;18.342;2024-02-21T11:38:09;97527.36;;;8.50;63.37
85928;BME280;76685;49.582;18.342;2024-02-21T11:40:41;97527.29;;;8.49;63.48
85928;BME280;76685;49.582;18.342;2024-02-21T11:43:08;97526.98;;;8.46;63.98
85928;BME280;76685;49.582;18.342;2024-02-21T11:45:35;97529.76;;;8.37;65.59
85928;BME280;76685;49.582;18.342;2024-02-21T11:48:03;97522.56;;;8.26;66.56
85928;BME280;76685;49.582;18.342;2024-02-21T11:50:33;97524.98;;;8.17;66.96
85928;BME280;76685;49.582;18.342;2024-02-21T11:53:00;97518.84;;;8.09;67.42
85928;BME280;76685;49.582;18.342;2024-02-21T11:55:29;97517.66;;;7.99;68.06
85928;BME280;76685;49.582;18.342;2024-02-21T11:57:56;97517.96;;;7.88;68.41
85928;BME280;76685;49.582;18.342;2024-02-21T12:00:25;97523.08;;;7.72;69.52
85928;BME280;76685;49.582;18.342;2024-02-21T12:02:52;97518.90;;;7.52;69.87
85928;BME280;76685;49.582;18.342;2024-02-21T12:05:19;97518.50;;;7.35;70.76
85928;BME280;76685;49.582;18.342;2024-02-21T12:07:47;97511.27;;;7.25;71.79
85928;BME280;76685;49.582;18.342;2024-02-21T12:10:14;97506.70;;;7.19;70.96
85928;BME280;76685;49.582;18.342;2024-02-21T12:12:41;97502.21;;;7.19;72.42
85928;BME280;76685;49.582;18.342;2024-02-21T12:15:08;97504.12;;;7.16;72.59
85928;BME280;76685;49.582;18.342;2024-02-21T12:17:37;97506.96;;;7.11;73.12
85928;BME280;76685;49.582;18.342;2024-02-21T12:20:05;97505.46;;;7.10;73.64
85928;BME280;76685;49.582;18.342;2024-02-21T12:22:36;97509.05;;;7.12;74.38
85928;BME280;76685;49.582;18.342;2024-02-21T12:25:04;97500.52;;;7.14;74.16
85928;BME280;76685;49.582;18.342;2024-02-21T12:27:31;97495.66;;;7.13;74.22
85928;BME280;76685;49.582;18.342;2024-02-21T12:29:58;97493.89;;;7.18;74.46
85928;BME280;76685;49.582;18.342;2024-02-21T12:32:30;97488.89;;;7.26;73.35
85928;BME280;76685;49.582;18.342;2024-02-21T12:34:59;97487.90;;;7.34;73.42
85928;BME280;76685;49.582;18.342;2024-02-21T12:37:30;97486.61;;;7.41;72.41
85928;BME280;76685;49.582;18.342;2024-02-21T12:39:57;97484.23;;;7.48;71.48
85928;BME280;76685;49.582;18.342;2024-02-21T12:42:24;97484.87;;;7.49;71.33
85928;BME280;76685;49.582;18.342;2024-02-21T12:44:52;97483.29;;;7.43;71.23
85928;BME280;76685;49.582;18.342;2024-02-21T12:47:19;97479.48;;;7.39;71.19
85928;BME280;76685;49.582;18.342;2024-02-21T12:49:50;97472.41;;;7.36;72.48
85928;BME280;76685;49.582;18.342;2024-02-21T12:52:17;97471.43;;;7.35;72.29
85928;BME280;76685;49.582;18.342;2024-02-21T12:54:44;97469.02;;;7.34;73.05
85928;BME280;76685;49.582;18.342;2024-02-21T12:57:11;97466.92;;;7.32;73.07
85928;BME280;76685;49.582;18.342;2024-02-21T12:59:38;97460.61;;;7.28;73.78
85928;BME280;76685;49.582;18.342;2024-02-21T13:02:06;97456.70;;;7.26;74.00
85928;BME280;76685;49.582;18.342;2024-02-21T13:04:33;97453.04;;;7.22;74.26
85928;BME280;76685;49.582;18.342;2024-02-21T13:07:00;97449.59;;;7.19;74.07